sensor_id;sensor_type;location;lat;lon;timestamp;P1;durP1;ratioP1;P2;durP2;ratioP2
13706;SDS011;6925;47.816;13.072;2022-11-15T00:00:48;7.30;;;3.40;;
13706;SDS011;6925;47.816;13.072;2022-11-15T00:03:17;6.70;;;3.72;;
13706;SDS011;6925;47.816;13.072;2022-11-15T00:05:46;8.25;;;3.33;;
13706;SDS011;6925;47.816;13.072;2022-11-15T00:08:15;6.07;;;3.10;;
13706;SDS011;6925;47.816;13.072;2022-11-15T00:10:49;6.13;;;3.03;;
13706;SDS011;6925;47.816;13.072;2022-11-15T00:13:21;8.25;;;3.72;;
13706;SDS011;6925;47.816;13.072;2022-11-15T00:18:15;6.15;;;3.08;;
13706;SDS011;6925;47.816;13.072;2022-11-15T00:20:43;5.60;;;2.92;;
13706;SDS011;6925;47.816;13.072;2022-11-15T00:23:11;5.70;;;3.08;;
13706;SDS011;6925;47.816;13.072;2022-11-15T00:25:40;6.07;;;2.88;;
13706;SDS011;6925;47.816;13.072;2022-11-15T00:28:07;8.23;;;4.47;;
13706;SDS011;6925;47.816;13.072;2022-11-15T00:30:34;7.45;;;4.20;;
13706;SDS011;6925;47.816;13.072;2022-11-15T00:33:02;6.45;;;4.18;;
13706;SDS011;6925;47.816;13.072;2022-11-15T00:35:31;5.60;;;3.13;;
13706;SDS011;6925;47.816;13.072;2022-11-15T00:37:59;5.72;;;2.65;;
13706;SDS011;6925;47.816;13.072;2022-11-15T00:40:26;5.82;;;2.90;;
13706;SDS011;6925;47.816;13.072;2022-11-15T00:42:59;6.40;;;2.55;;
13706;SDS011;6925;47.816;13.072;2022-11-15T00:45:26;4.68;;;2.60;;
13706;SDS011;6925;47.816;13.072;2022-11-15T00:47:53;4.50;;;2.15;;
13706;SDS011;6925;47.816;13.072;2022-11-15T00:50:21;5.20;;;2.75;;
13706;SDS011;6925;47.816;13.072;2022-11-15T00:55:15;8.32;;;2.50;;
13706;SDS011;6925;47.816;13.072;2022-11-15T00:57:43;4.53;;;2.35;;
13706;SDS011;6925;47.816;13.072;2022-11-15T01:00:14;5.65;;;3.00;;
13706;SDS011;6925;47.816;13.072;2022-11-15T01:02:41;4.97;;;2.70;;
13706;SDS011;6925;47.816;13.072;2022-11-15T01:05:10;5.00;;;2.83;;
13706;SDS011;6925;47.816;13.072;2022-11-15T01:07:37;7.57;;;2.58;;
13706;SDS011;6925;47.816;13.072;2022-11-15T01:12:32;4.55;;;2.20;;
13706;SDS011;6925;47.816;13.072;2022-11-15T01:17:28;4.25;;;2.08;;
13706;SDS011;6925;47.816;13.072;2022-11-15T01:19:57;5.07;;;2.45;;
13706;SDS011;6925;47.816;13.072;2022-11-15T01:22:24;5.28;;;2.50;;
13706;SDS011;6925;47.816;13.072;2022-11-15T01:24:52;4.95;;;2.40;;
13706;SDS011;6925;47.816;13.072;2022-11-15T01:27:19;4.53;;;2.20;;
13706;SDS011;6925;47.816;13.072;2022-11-15T01:29:46;8.25;;;2.55;;
13706;SDS011;6925;47.816;13.072;2022-11-15T01:32:14;5.07;;;2.47;;
13706;SDS011;6925;47.816;13.072;2022-11-15T01:34:42;4.65;;;2.35;;
13706;SDS011;6925;47.816;13.072;2022-11-15T01:37:10;7.45;;;2.47;;
13706;SDS011;6925;47.816;13.072;2022-11-15T01:42:04;5.40;;;2.42;;
13706;SDS011;6925;47.816;13.072;2022-11-15T01:47:06;4.13;;;2.38;;
13706;SDS011;6925;47.816;13.072;2022-11-15T01:49:38;4.13;;;2.20;;
13706;SDS011;6925;47.816;13.072;2022-11-15T01:52:11;4.55;;;2.00;;
13706;SDS011;6925;47.816;13.072;2022-11-15T01:54:41;4.25;;;2.17;;
13706;SDS011;6925;47.816;13.072;2022-11-15T01:57:10;4.45;;;2.38;;
13706;SDS011;6925;47.816;13.072;2022-11-15T01:59:39;3.80;;;2.00;;
13706;SDS011;6925;47.816;13.072;2022-11-15T02:02:09;4.18;;;1.92;;
13706;SDS011;6925;47.816;13.072;2022-11-15T02:04:37;4.50;;;2.20;;
13706;SDS011;6925;47.816;13.072;2022-11-15T02:07:08;4.30;;;2.00;;
13706;SDS011;6925;47.816;13.072;2022-11-15T02:09:42;4.15;;;2.25;;
13706;SDS011;6925;47.816;13.072;2022-11-15T02:12:10;5.15;;;2.10;;
13706;SDS011;6925;47.816;13.072;2022-11-15T02:14:41;4.60;;;1.95;;
13706;SDS011;6925;47.816;13.072;2022-11-15T02:17:25;5.43;;;2.22;;
13706;SDS011;6925;47.816;13.072;2022-11-15T02:23:13;4.13;;;1.88;;
13706;SDS011;6925;47.816;13.072;2022-11-15T02:26:14;5.18;;;2.15;;
13706;SDS011;6925;47.816;13.072;2022-11-15T02:29:07;4.03;;;1.88;;
13706;SDS011;6925;47.816;13.072;2022-11-15T02:31:39;3.72;;;2.22;;
13706;SDS011;6925;47.816;13.072;2022-11-15T02:34:16;4.18;;;2.13;;
13706;SDS011;6925;47.816;13.072;2022-11-15T02:36:54;4.05;;;2.15;;
13706;SDS011;6925;47.816;13.072;2022-11-15T02:39:32;4.47;;;2.10;;
13706;SDS011;6925;47.816;13.072;2022-11-15T02:42:07;4.40;;;2.15;;
13706;SDS011;6925;47.816;13.072;2022-11-15T02:44:53;4.38;;;1.95;;
13706;SDS011;6925;47.816;13.072;2022-11-15T02:47:25;4.05;;;2.00;;
13706;SDS011;6925;47.816;13.072;2022-11-15T02:49:57;4.05;;;2.00;;
13706;SDS011;6925;47.816;13.072;2022-11-15T02:52:26;4.75;;;2.08;;
13706;SDS011;6925;47.816;13.072;2022-11-15T02:54:54;5.60;;;2.10;;
13706;SDS011;6925;47.816;13.072;2022-11-15T02:57:25;4.10;;;2.30;;
13706;SDS011;6925;47.816;13.072;2022-11-15T03:00:05;4.10;;;2.10;;
13706;SDS011;6925;47.816;13.072;2022-11-15T03:02:51;4.00;;;2.00;;
13706;SDS011;6925;47.816;13.072;2022-11-15T03:05:51;4.43;;;2.00;;
13706;SDS011;6925;47.816;13.072;2022-11-15T03:08:26;4.25;;;2.10;;
13706;SDS011;6925;47.816;13.072;2022-11-15T03:11:02;4.45;;;2.47;;
13706;SDS011;6925;47.816;13.072;2022-11-15T03:13:34;4.72;;;2.30;;
13706;SDS011;6925;47.816;13.072;2022-11-15T03:16:10;3.90;;;2.20;;
13706;SDS011;6925;47.816;13.072;2022-11-15T03:18:45;4.50;;;2.45;;
13706;SDS011;6925;47.816;13.072;2022-11-15T03:21:16;4.75;;;2.30;;
13706;SDS011;6925;47.816;13.072;2022-11-15T03:23:47;5.28;;;1.98;;
13706;SDS011;6925;47.816;13.072;2022-11-15T03:26:17;5.70;;;2.15;;
13706;SDS011;6925;47.816;13.072;2022-11-15T03:28:49;4.00;;;2.17;;
13706;SDS011;6925;47.816;13.072;2022-11-15T03:31:19;3.90;;;2.00;;
13706;SDS011;6925;47.816;13.072;2022-11-15T03:34:06;3.85;;;1.90;;
13706;SDS011;6925;47.816;13.072;2022-11-15T03:36:39;3.60;;;1.95;;
13706;SDS011;6925;47.816;13.072;2022-11-15T03:39:07;3.78;;;2.00;;
13706;SDS011;6925;47.816;13.072;2022-11-15T03:41:35;3.45;;;1.70;;
13706;SDS011;6925;47.816;13.072;2022-11-15T03:44:09;3.90;;;2.13;;
13706;SDS011;6925;47.816;13.072;2022-11-15T03:46:45;4.43;;;2.38;;
13706;SDS011;6925;47.816;13.072;2022-11-15T03:49:19;4.32;;;2.00;;
13706;SDS011;6925;47.816;13.072;2022-11-15T03:51:52;3.67;;;2.20;;
13706;SDS011;6925;47.816;13.072;2022-11-15T03:56:47;4.20;;;1.75;;
13706;SDS011;6925;47.816;13.072;2022-11-15T04:01:41;4.75;;;1.98;;
13706;SDS011;6925;47.816;13.072;2022-11-15T04:04:08;3.60;;;1.90;;
13706;SDS011;6925;47.816;13.072;2022-11-15T04:09:04;3.90;;;1.65;;
13706;SDS011;6925;47.816;13.072;2022-11-15T04:13:59;3.65;;;1.63;;
13706;SDS011;6925;47.816;13.072;2022-11-15T04:18:53;3.45;;;1.67;;
13706;SDS011;6925;47.816;13.072;2022-11-15T04:21:34;3.53;;;1.48;;
13706;SDS011;6925;47.816;13.072;2022-11-15T04:24:20;3.38;;;1.63;;
13706;SDS011;6925;47.816;13.072;2022-11-15T04:26:48;4.13;;;2.10;;
13706;SDS011;6925;47.816;13.072;2022-11-15T04:29:15;3.53;;;1.98;;
13706;SDS011;6925;47.816;13.072;2022-11-15T04:32:00;4.50;;;1.88;;
13706;SDS011;6925;47.816;13.072;2022-11-15T04:34:28;3.30;;;1.70;;
13706;SDS011;6925;47.816;13.072;2022-11-15T04:39:40;4.32;;;1.73;;
13706;SDS011;6925;47.816;13.072;2022-11-15T04:42:07;5.43;;;2.15;;
13706;SDS011;6925;47.816;13.072;2022-11-15T04:44:35;4.82;;;1.83;;
13706;SDS011;6925;47.816;13.072;2022-11-15T04:47:03;4.18;;;2.00;;
13706;SDS011;6925;47.816;13.072;2022-11-15T04:49:31;6.05;;;1.77;;
13706;SDS011;6925;47.816;13.072;2022-11-15T04:52:01;4.63;;;2.13;;
13706;SDS011;6925;47.816;13.072;2022-11-15T04:54:29;4.10;;;1.83;;
13706;SDS011;6925;47.816;13.072;2022-11-15T04:56:58;4.38;;;2.10;;
13706;SDS011;6925;47.816;13.072;2022-11-15T04:59:25;3.88;;;2.03;;
13706;SDS011;6925;47.816;13.072;2022-11-15T05:01:53;3.67;;;2.13;;
13706;SDS011;6925;47.816;13.072;2022-11-15T05:04:21;4.65;;;1.63;;
13706;SDS011;6925;47.816;13.072;2022-11-15T05:06:48;4.22;;;1.98;;
13706;SDS011;6925;47.816;13.072;2022-11-15T05:09:16;5.40;;;2.30;;
13706;SDS011;6925;47.816;13.072;2022-11-15T05:11:44;3.25;;;1.67;;
13706;SDS011;6925;47.816;13.072;2022-11-15T05:14:13;3.72;;;1.70;;
13706;SDS011;6925;47.816;13.072;2022-11-15T05:16:41;4.40;;;1.98;;
13706;SDS011;6925;47.816;13.072;2022-11-15T05:19:09;4.63;;;2.13;;
13706;SDS011;6925;47.816;13.072;2022-11-15T05:24:04;3.15;;;1.52;;
13706;SDS011;6925;47.816;13.072;2022-11-15T05:26:32;4.07;;;1.95;;
13706;SDS011;6925;47.816;13.072;2022-11-15T05:29:00;4.03;;;1.70;;
13706;SDS011;6925;47.816;13.072;2022-11-15T05:31:29;4.05;;;1.67;;
13706;SDS011;6925;47.816;13.072;2022-11-15T05:33:56;4.78;;;2.33;;
13706;SDS011;6925;47.816;13.072;2022-11-15T05:36:28;3.95;;;1.92;;
13706;SDS011;6925;47.816;13.072;2022-11-15T05:41:30;3.55;;;1.80;;
13706;SDS011;6925;47.816;13.072;2022-11-15T05:44:11;4.50;;;1.98;;
13706;SDS011;6925;47.816;13.072;2022-11-15T05:49:44;3.95;;;1.88;;
13706;SDS011;6925;47.816;13.072;2022-11-15T05:52:13;6.20;;;2.35;;
13706;SDS011;6925;47.816;13.072;2022-11-15T05:54:43;4.00;;;2.20;;
13706;SDS011;6925;47.816;13.072;2022-11-15T05:57:11;4.00;;;2.17;;
13706;SDS011;6925;47.816;13.072;2022-11-15T06:02:26;4.53;;;2.08;;
13706;SDS011;6925;47.816;13.072;2022-11-15T06:04:55;4.07;;;2.08;;
13706;SDS011;6925;47.816;13.072;2022-11-15T06:07:30;3.58;;;2.05;;
13706;SDS011;6925;47.816;13.072;2022-11-15T06:09:57;4.10;;;2.00;;
13706;SDS011;6925;47.816;13.072;2022-11-15T06:12:26;4.40;;;2.25;;
13706;SDS011;6925;47.816;13.072;2022-11-15T06:14:53;4.80;;;2.40;;
13706;SDS011;6925;47.816;13.072;2022-11-15T06:17:21;6.75;;;2.92;;
13706;SDS011;6925;47.816;13.072;2022-11-15T06:19:49;5.88;;;2.50;;
13706;SDS011;6925;47.816;13.072;2022-11-15T06:22:17;3.80;;;2.05;;
13706;SDS011;6925;47.816;13.072;2022-11-15T06:27:13;3.90;;;1.80;;
13706;SDS011;6925;47.816;13.072;2022-11-15T06:29:44;4.18;;;2.15;;
13706;SDS011;6925;47.816;13.072;2022-11-15T06:32:14;4.13;;;1.90;;
13706;SDS011;6925;47.816;13.072;2022-11-15T06:37:12;3.95;;;1.98;;
13706;SDS011;6925;47.816;13.072;2022-11-15T06:39:42;3.85;;;2.17;;
13706;SDS011;6925;47.816;13.072;2022-11-15T06:44:46;3.38;;;1.60;;
13706;SDS011;6925;47.816;13.072;2022-11-15T06:47:32;3.40;;;1.80;;
13706;SDS011;6925;47.816;13.072;2022-11-15T06:50:00;3.20;;;1.60;;
13706;SDS011;6925;47.816;13.072;2022-11-15T06:52:28;3.28;;;1.55;;
13706;SDS011;6925;47.816;13.072;2022-11-15T06:54:57;3.80;;;1.67;;
13706;SDS011;6925;47.816;13.072;2022-11-15T06:59:52;3.00;;;1.63;;
13706;SDS011;6925;47.816;13.072;2022-11-15T07:05:12;3.38;;;1.80;;
13706;SDS011;6925;47.816;13.072;2022-11-15T07:07:52;4.28;;;2.00;;
13706;SDS011;6925;47.816;13.072;2022-11-15T07:10:20;3.67;;;1.92;;
13706;SDS011;6925;47.816;13.072;2022-11-15T07:12:49;4.57;;;2.22;;
13706;SDS011;6925;47.816;13.072;2022-11-15T07:16:38;5.75;;;2.28;;
13706;SDS011;6925;47.816;13.072;2022-11-15T07:18:48;5.00;;;2.45;;
13706;SDS011;6925;47.816;13.072;2022-11-15T07:21:26;4.68;;;2.45;;
13706;SDS011;6925;47.816;13.072;2022-11-15T07:24:04;4.57;;;2.35;;
13706;SDS011;6925;47.816;13.072;2022-11-15T07:26:36;6.55;;;2.38;;
13706;SDS011;6925;47.816;13.072;2022-11-15T07:31:31;5.10;;;2.75;;
13706;SDS011;6925;47.816;13.072;2022-11-15T07:33:58;4.57;;;2.13;;
13706;SDS011;6925;47.816;13.072;2022-11-15T07:39:34;4.07;;;2.05;;
13706;SDS011;6925;47.816;13.072;2022-11-15T07:52:19;4.57;;;2.80;;
13706;SDS011;6925;47.816;13.072;2022-11-15T07:54:51;4.68;;;2.47;;
13706;SDS011;6925;47.816;13.072;2022-11-15T08:00:28;4.82;;;2.25;;
13706;SDS011;6925;47.816;13.072;2022-11-15T08:04:06;4.70;;;2.30;;
13706;SDS011;6925;47.816;13.072;2022-11-15T08:15:17;4.97;;;2.55;;
13706;SDS011;6925;47.816;13.072;2022-11-15T08:17:44;6.00;;;2.15;;
13706;SDS011;6925;47.816;13.072;2022-11-15T08:20:13;4.15;;;1.98;;
13706;SDS011;6925;47.816;13.072;2022-11-15T08:22:41;4.57;;;2.28;;
13706;SDS011;6925;47.816;13.072;2022-11-15T08:25:10;5.85;;;2.45;;
13706;SDS011;6925;47.816;13.072;2022-11-15T08:27:38;4.43;;;2.35;;
13706;SDS011;6925;47.816;13.072;2022-11-15T08:30:08;6.00;;;2.85;;
13706;SDS011;6925;47.816;13.072;2022-11-15T08:32:53;4.70;;;2.42;;
13706;SDS011;6925;47.816;13.072;2022-11-15T08:35:25;4.30;;;2.70;;
13706;SDS011;6925;47.816;13.072;2022-11-15T08:37:55;5.45;;;2.42;;
13706;SDS011;6925;47.816;13.072;2022-11-15T08:46:25;6.07;;;2.03;;
13706;SDS011;6925;47.816;13.072;2022-11-15T08:48:54;3.72;;;2.05;;
13706;SDS011;6925;47.816;13.072;2022-11-15T08:51:36;6.18;;;2.38;;
13706;SDS011;6925;47.816;13.072;2022-11-15T08:54:04;5.55;;;2.65;;
13706;SDS011;6925;47.816;13.072;2022-11-15T08:56:40;4.22;;;2.22;;
13706;SDS011;6925;47.816;13.072;2022-11-15T08:59:26;6.93;;;2.55;;
13706;SDS011;6925;47.816;13.072;2022-11-15T09:01:59;4.47;;;2.03;;
13706;SDS011;6925;47.816;13.072;2022-11-15T09:04:32;5.43;;;2.05;;
13706;SDS011;6925;47.816;13.072;2022-11-15T09:07:02;4.55;;;2.50;;
13706;SDS011;6925;47.816;13.072;2022-11-15T09:26:46;4.17;;;2.57;;
13706;SDS011;6925;47.816;13.072;2022-11-15T09:29:16;3.45;;;2.13;;
13706;SDS011;6925;47.816;13.072;2022-11-15T09:31:46;6.57;;;2.20;;
13706;SDS011;6925;47.816;13.072;2022-11-15T09:34:16;3.33;;;2.22;;
13706;SDS011;6925;47.816;13.072;2022-11-15T09:36:49;5.72;;;2.40;;
13706;SDS011;6925;47.816;13.072;2022-11-15T09:39:20;3.85;;;2.50;;
13706;SDS011;6925;47.816;13.072;2022-11-15T09:42:00;4.22;;;2.45;;
13706;SDS011;6925;47.816;13.072;2022-11-15T09:44:48;3.35;;;2.17;;
13706;SDS011;6925;47.816;13.072;2022-11-15T09:50:36;3.33;;;2.20;;
13706;SDS011;6925;47.816;13.072;2022-11-15T09:53:09;3.92;;;2.00;;
13706;SDS011;6925;47.816;13.072;2022-11-15T09:55:43;3.70;;;2.00;;
13706;SDS011;6925;47.816;13.072;2022-11-15T09:58:28;2.95;;;1.90;;
13706;SDS011;6925;47.816;13.072;2022-11-15T10:01:16;4.45;;;1.98;;
13706;SDS011;6925;47.816;13.072;2022-11-15T10:03:56;3.08;;;1.73;;
13706;SDS011;6925;47.816;13.072;2022-11-15T10:06:25;3.70;;;2.10;;
13706;SDS011;6925;47.816;13.072;2022-11-15T10:08:55;3.25;;;1.90;;
13706;SDS011;6925;47.816;13.072;2022-11-15T10:11:32;4.13;;;2.15;;
13706;SDS011;6925;47.816;13.072;2022-11-15T10:14:04;3.50;;;2.05;;
13706;SDS011;6925;47.816;13.072;2022-11-15T10:16:45;6.78;;;2.20;;
13706;SDS011;6925;47.816;13.072;2022-11-15T10:22:38;4.03;;;2.03;;
13706;SDS011;6925;47.816;13.072;2022-11-15T10:25:13;3.97;;;1.88;;
13706;SDS011;6925;47.816;13.072;2022-11-15T10:27:50;4.20;;;1.80;;
13706;SDS011;6925;47.816;13.072;2022-11-15T10:30:54;3.55;;;2.00;;
13706;SDS011;6925;47.816;13.072;2022-11-15T10:33:50;2.97;;;1.73;;
13706;SDS011;6925;47.816;13.072;2022-11-15T10:36:36;3.55;;;2.10;;
13706;SDS011;6925;47.816;13.072;2022-11-15T10:39:04;3.05;;;1.67;;
13706;SDS011;6925;47.816;13.072;2022-11-15T10:41:32;4.38;;;1.70;;
13706;SDS011;6925;47.816;13.072;2022-11-15T10:44:11;4.30;;;2.20;;
13706;SDS011;6925;47.816;13.072;2022-11-15T10:47:06;3.05;;;1.92;;
13706;SDS011;6925;47.816;13.072;2022-11-15T10:49:58;3.80;;;1.70;;
13706;SDS011;6925;47.816;13.072;2022-11-15T10:52:27;3.92;;;1.95;;
13706;SDS011;6925;47.816;13.072;2022-11-15T10:54:58;3.80;;;2.10;;
13706;SDS011;6925;47.816;13.072;2022-11-15T10:57:31;3.42;;;1.90;;
13706;SDS011;6925;47.816;13.072;2022-11-15T11:00:01;4.55;;;2.10;;
13706;SDS011;6925;47.816;13.072;2022-11-15T11:02:33;7.53;;;2.42;;
13706;SDS011;6925;47.816;13.072;2022-11-15T11:05:02;3.55;;;1.90;;
13706;SDS011;6925;47.816;13.072;2022-11-15T11:18:04;3.00;;;2.00;;
13706;SDS011;6925;47.816;13.072;2022-11-15T11:37:28;7.47;;;3.40;;
13706;SDS011;6925;47.816;13.072;2022-11-15T14:08:22;5.50;;;3.60;;
13706;SDS011;6925;47.816;13.072;2022-11-15T14:31:10;4.75;;;2.75;;
13706;SDS011;6925;47.816;13.072;2022-11-15T14:33:39;5.55;;;2.85;;
13706;SDS011;6925;47.816;13.072;2022-11-15T14:42:21;6.32;;;3.45;;
13706;SDS011;6925;47.816;13.072;2022-11-15T14:44:53;7.03;;;3.95;;
13706;SDS011;6925;47.816;13.072;2022-11-15T14:54:37;4.97;;;2.80;;
13706;SDS011;6925;47.816;13.072;2022-11-15T15:08:45;7.93;;;4.80;;
13706;SDS011;6925;47.816;13.072;2022-11-15T15:11:30;5.97;;;4.00;;
13706;SDS011;6925;47.816;13.072;2022-11-15T15:14:07;7.03;;;3.92;;
13706;SDS011;6925;47.816;13.072;2022-11-15T15:17:34;8.73;;;4.28;;
13706;SDS011;6925;47.816;13.072;2022-11-15T15:20:18;8.70;;;4.60;;
13706;SDS011;6925;47.816;13.072;2022-11-15T15:22:47;8.65;;;5.22;;
13706;SDS011;6925;47.816;13.072;2022-11-15T15:28:31;5.78;;;3.72;;
13706;SDS011;6925;47.816;13.072;2022-11-15T15:37:23;7.38;;;4.75;;
13706;SDS011;6925;47.816;13.072;2022-11-15T15:40:17;6.75;;;4.35;;
13706;SDS011;6925;47.816;13.072;2022-11-15T15:57:55;7.43;;;5.20;;
13706;SDS011;6925;47.816;13.072;2022-11-15T16:00:25;9.98;;;5.05;;
13706;SDS011;6925;47.816;13.072;2022-11-15T16:02:58;9.13;;;5.07;;
13706;SDS011;6925;47.816;13.072;2022-11-15T16:05:30;10.27;;;5.78;;
13706;SDS011;6925;47.816;13.072;2022-11-15T16:08:03;12.60;;;4.85;;
13706;SDS011;6925;47.816;13.072;2022-11-15T16:10:35;9.45;;;5.13;;
13706;SDS011;6925;47.816;13.072;2022-11-15T16:15:30;7.55;;;4.53;;
13706;SDS011;6925;47.816;13.072;2022-11-15T16:17:59;8.00;;;4.30;;
13706;SDS011;6925;47.816;13.072;2022-11-15T16:20:33;7.53;;;4.57;;
13706;SDS011;6925;47.816;13.072;2022-11-15T16:23:05;8.70;;;5.28;;
13706;SDS011;6925;47.816;13.072;2022-11-15T16:25:36;8.52;;;5.30;;
13706;SDS011;6925;47.816;13.072;2022-11-15T16:28:10;8.10;;;4.85;;
13706;SDS011;6925;47.816;13.072;2022-11-15T16:30:43;9.02;;;4.22;;
13706;SDS011;6925;47.816;13.072;2022-11-15T16:33:11;9.73;;;5.18;;
13706;SDS011;6925;47.816;13.072;2022-11-15T16:35:44;9.93;;;5.90;;
13706;SDS011;6925;47.816;13.072;2022-11-15T16:38:13;9.80;;;5.50;;
13706;SDS011;6925;47.816;13.072;2022-11-15T16:40:43;10.63;;;5.95;;
13706;SDS011;6925;47.816;13.072;2022-11-15T16:43:11;9.18;;;5.80;;
13706;SDS011;6925;47.816;13.072;2022-11-15T16:45:40;10.20;;;5.15;;
13706;SDS011;6925;47.816;13.072;2022-11-15T16:48:08;10.15;;;6.40;;
13706;SDS011;6925;47.816;13.072;2022-11-15T16:50:49;15.70;;;8.43;;
13706;SDS011;6925;47.816;13.072;2022-11-15T16:53:16;21.10;;;11.57;;
13706;SDS011;6925;47.816;13.072;2022-11-15T16:55:49;13.80;;;7.15;;
13706;SDS011;6925;47.816;13.072;2022-11-15T16:58:17;10.20;;;6.00;;
13706;SDS011;6925;47.816;13.072;2022-11-15T17:03:11;9.90;;;5.85;;
13706;SDS011;6925;47.816;13.072;2022-11-15T17:08:12;9.95;;;6.22;;
13706;SDS011;6925;47.816;13.072;2022-11-15T17:10:39;8.18;;;4.90;;
13706;SDS011;6925;47.816;13.072;2022-11-15T17:13:07;10.85;;;5.63;;
13706;SDS011;6925;47.816;13.072;2022-11-15T17:15:36;7.07;;;5.22;;
13706;SDS011;6925;47.816;13.072;2022-11-15T17:20:31;9.40;;;5.78;;
13706;SDS011;6925;47.816;13.072;2022-11-15T17:22:58;8.05;;;5.20;;
13706;SDS011;6925;47.816;13.072;2022-11-15T17:25:28;10.60;;;5.57;;
13706;SDS011;6925;47.816;13.072;2022-11-15T17:27:56;16.70;;;6.75;;
13706;SDS011;6925;47.816;13.072;2022-11-15T17:30:23;9.25;;;5.20;;
13706;SDS011;6925;47.816;13.072;2022-11-15T17:32:51;8.40;;;4.88;;
13706;SDS011;6925;47.816;13.072;2022-11-15T17:35:21;14.70;;;5.60;;
13706;SDS011;6925;47.816;13.072;2022-11-15T17:40:16;9.05;;;5.13;;
13706;SDS011;6925;47.816;13.072;2022-11-15T17:45:14;7.95;;;4.47;;
13706;SDS011;6925;47.816;13.072;2022-11-15T17:47:41;10.90;;;5.55;;
13706;SDS011;6925;47.816;13.072;2022-11-15T17:53:18;9.52;;;5.05;;
13706;SDS011;6925;47.816;13.072;2022-11-15T17:58:14;8.00;;;4.43;;
13706;SDS011;6925;47.816;13.072;2022-11-15T18:03:50;8.32;;;4.88;;
13706;SDS011;6925;47.816;13.072;2022-11-15T18:06:30;9.55;;;5.57;;
13706;SDS011;6925;47.816;13.072;2022-11-15T18:09:01;8.85;;;4.93;;
13706;SDS011;6925;47.816;13.072;2022-11-15T18:18:22;9.45;;;5.60;;
13706;SDS011;6925;47.816;13.072;2022-11-15T18:20:50;8.65;;;4.78;;
13706;SDS011;6925;47.816;13.072;2022-11-15T19:06:42;13.30;;;6.72;;
13706;SDS011;6925;47.816;13.072;2022-11-15T19:09:26;13.32;;;8.52;;
13706;SDS011;6925;47.816;13.072;2022-11-15T19:11:59;12.30;;;7.53;;
13706;SDS011;6925;47.816;13.072;2022-11-15T19:48:21;9.45;;;6.40;;
13706;SDS011;6925;47.816;13.072;2022-11-15T19:50:58;8.68;;;5.60;;
13706;SDS011;6925;47.816;13.072;2022-11-15T19:53:37;9.65;;;5.55;;
13706;SDS011;6925;47.816;13.072;2022-11-15T19:56:08;10.85;;;6.07;;
13706;SDS011;6925;47.816;13.072;2022-11-15T19:58:48;12.45;;;7.15;;
13706;SDS011;6925;47.816;13.072;2022-11-15T20:01:17;9.35;;;6.38;;
13706;SDS011;6925;47.816;13.072;2022-11-15T20:03:49;8.85;;;5.65;;
13706;SDS011;6925;47.816;13.072;2022-11-15T20:06:19;12.13;;;5.75;;
13706;SDS011;6925;47.816;13.072;2022-11-15T20:08:50;10.80;;;6.38;;
13706;SDS011;6925;47.816;13.072;2022-11-15T20:11:20;11.27;;;6.03;;
13706;SDS011;6925;47.816;13.072;2022-11-15T20:13:51;11.50;;;5.90;;
13706;SDS011;6925;47.816;13.072;2022-11-15T20:16:22;9.57;;;5.78;;
13706;SDS011;6925;47.816;13.072;2022-11-15T20:18:52;8.27;;;5.20;;
13706;SDS011;6925;47.816;13.072;2022-11-15T20:21:19;9.07;;;5.38;;
13706;SDS011;6925;47.816;13.072;2022-11-15T20:23:47;10.20;;;5.78;;
13706;SDS011;6925;47.816;13.072;2022-11-15T20:26:15;10.95;;;8.23;;
13706;SDS011;6925;47.816;13.072;2022-11-15T20:28:44;11.93;;;7.47;;
13706;SDS011;6925;47.816;13.072;2022-11-15T20:31:12;11.32;;;7.40;;
13706;SDS011;6925;47.816;13.072;2022-11-15T20:33:39;13.15;;;7.35;;
13706;SDS011;6925;47.816;13.072;2022-11-15T20:36:12;11.75;;;7.22;;
13706;SDS011;6925;47.816;13.072;2022-11-15T20:38:40;11.45;;;7.30;;
13706;SDS011;6925;47.816;13.072;2022-11-15T20:41:08;13.60;;;8.65;;
13706;SDS011;6925;47.816;13.072;2022-11-15T20:43:35;13.65;;;8.68;;
13706;SDS011;6925;47.816;13.072;2022-11-15T20:46:07;11.65;;;6.72;;
13706;SDS011;6925;47.816;13.072;2022-11-15T20:48:40;10.57;;;6.55;;
13706;SDS011;6925;47.816;13.072;2022-11-15T20:51:09;10.85;;;6.97;;
13706;SDS011;6925;47.816;13.072;2022-11-15T20:53:39;10.60;;;7.03;;
13706;SDS011;6925;47.816;13.072;2022-11-15T20:56:08;12.48;;;6.88;;
13706;SDS011;6925;47.816;13.072;2022-11-15T20:58:40;9.20;;;6.03;;
13706;SDS011;6925;47.816;13.072;2022-11-15T21:01:09;8.45;;;5.28;;
13706;SDS011;6925;47.816;13.072;2022-11-15T21:03:38;7.30;;;4.50;;
13706;SDS011;6925;47.816;13.072;2022-11-15T21:06:05;7.35;;;4.18;;
13706;SDS011;6925;47.816;13.072;2022-11-15T21:08:34;7.60;;;4.70;;
13706;SDS011;6925;47.816;13.072;2022-11-15T21:11:15;7.80;;;5.18;;
13706;SDS011;6925;47.816;13.072;2022-11-15T21:14:00;8.57;;;4.93;;
13706;SDS011;6925;47.816;13.072;2022-11-15T21:16:27;7.85;;;5.28;;
13706;SDS011;6925;47.816;13.072;2022-11-15T21:18:54;7.00;;;4.28;;
13706;SDS011;6925;47.816;13.072;2022-11-15T21:21:21;7.45;;;5.32;;
13706;SDS011;6925;47.816;13.072;2022-11-15T21:23:50;8.00;;;4.65;;
13706;SDS011;6925;47.816;13.072;2022-11-15T21:26:17;6.95;;;4.70;;
13706;SDS011;6925;47.816;13.072;2022-11-15T21:28:45;7.57;;;5.00;;
13706;SDS011;6925;47.816;13.072;2022-11-15T21:31:12;8.27;;;5.50;;
13706;SDS011;6925;47.816;13.072;2022-11-15T21:33:39;7.53;;;5.15;;
13706;SDS011;6925;47.816;13.072;2022-11-15T21:36:07;8.43;;;5.00;;
13706;SDS011;6925;47.816;13.072;2022-11-15T21:38:35;7.05;;;4.82;;
13706;SDS011;6925;47.816;13.072;2022-11-15T21:41:04;7.10;;;4.63;;
13706;SDS011;6925;47.816;13.072;2022-11-15T21:43:31;10.52;;;5.82;;
13706;SDS011;6925;47.816;13.072;2022-11-15T21:45:59;8.82;;;5.28;;
13706;SDS011;6925;47.816;13.072;2022-11-15T21:48:29;9.57;;;5.82;;
13706;SDS011;6925;47.816;13.072;2022-11-15T21:50:57;11.18;;;6.85;;
13706;SDS011;6925;47.816;13.072;2022-11-15T21:53:25;12.35;;;7.80;;
13706;SDS011;6925;47.816;13.072;2022-11-15T21:55:54;10.85;;;6.95;;
13706;SDS011;6925;47.816;13.072;2022-11-15T21:58:23;10.82;;;6.70;;
13706;SDS011;6925;47.816;13.072;2022-11-15T22:00:52;10.77;;;6.55;;
13706;SDS011;6925;47.816;13.072;2022-11-15T22:03:38;10.73;;;6.75;;
13706;SDS011;6925;47.816;13.072;2022-11-15T22:06:06;11.38;;;6.20;;
13706;SDS011;6925;47.816;13.072;2022-11-15T22:08:33;10.50;;;6.60;;
13706;SDS011;6925;47.816;13.072;2022-11-15T22:11:00;10.90;;;7.00;;
13706;SDS011;6925;47.816;13.072;2022-11-15T22:13:29;10.30;;;5.80;;
13706;SDS011;6925;47.816;13.072;2022-11-15T22:15:56;10.13;;;5.97;;
13706;SDS011;6925;47.816;13.072;2022-11-15T22:18:24;7.90;;;4.90;;
13706;SDS011;6925;47.816;13.072;2022-11-15T22:20:52;7.13;;;4.93;;
13706;SDS011;6925;47.816;13.072;2022-11-15T22:23:21;6.47;;;4.82;;
13706;SDS011;6925;47.816;13.072;2022-11-15T22:28:16;7.60;;;4.70;;
13706;SDS011;6925;47.816;13.072;2022-11-15T22:30:46;7.03;;;4.07;;
13706;SDS011;6925;47.816;13.072;2022-11-15T22:33:14;7.15;;;4.60;;
13706;SDS011;6925;47.816;13.072;2022-11-15T22:35:42;8.48;;;5.28;;
13706;SDS011;6925;47.816;13.072;2022-11-15T22:38:10;7.03;;;4.78;;
13706;SDS011;6925;47.816;13.072;2022-11-15T22:43:05;7.25;;;4.03;;
13706;SDS011;6925;47.816;13.072;2022-11-15T22:45:32;8.98;;;5.05;;
13706;SDS011;6925;47.816;13.072;2022-11-15T22:48:01;8.48;;;4.75;;
13706;SDS011;6925;47.816;13.072;2022-11-15T22:50:29;11.23;;;6.05;;
13706;SDS011;6925;47.816;13.072;2022-11-15T22:52:56;10.93;;;6.15;;
13706;SDS011;6925;47.816;13.072;2022-11-15T22:55:24;10.15;;;6.28;;
13706;SDS011;6925;47.816;13.072;2022-11-15T22:57:51;8.90;;;5.35;;
13706;SDS011;6925;47.816;13.072;2022-11-15T23:02:46;8.50;;;4.97;;
13706;SDS011;6925;47.816;13.072;2022-11-15T23:05:14;8.20;;;4.68;;
13706;SDS011;6925;47.816;13.072;2022-11-15T23:07:43;7.72;;;5.25;;